Terminal Aerodrome Forecast
Issued by NWS

Home | Current Version | Previous Version | Text Only | Print | Product List | Glossary On
Versions: 1 2 3 4 5 6 7 8 9 10 11 12 13 14 15 16 17 18 19 20
000
FTUS45 KGJT 250543
TAFEGE
TAF
KEGE 250543Z 2506/2606 08008KT P6SM VCSH OVC120
     FM251000 VRB03KT P6SM SCT120
     FM251800 25007KT P6SM SCT150 BKN250
     FM252000 24009KT P6SM VCTS BKN120CB
     FM260500 28004KT P6SM VCSH OVC100=

USA.gov is the U.S. government's official web portal to all federal, state and local government web resources and services.